Time;durP1;ratioP1;P1;durP2;ratioP2;P2;SDS_P1;SDS_P2;PMS_P1;PMS_P2;Temp;Humidity;BMP_temperature;BMP_pressure;BME280_temperature;BME280_humidity;BME280_pressure;Samples;Min_cycle;Max_cycle;Signal;HPM_P1;HPM_P2
2023/06/29 00:01:58;;;;;;;18.47;14.43;;;15.00;99.90;;;;;;5054699;28;20252;-84
2023/06/29 00:04:25;;;;;;;21.83;15.43;;;15.00;99.90;;;;;;5072582;28;20599;-88
2023/06/29 00:06:54;;;;;;;20.10;14.90;;;15.00;99.90;;;;;;5070915;28;20225;-88
2023/06/29 00:09:22;;;;;;;26.87;15.63;;;15.00;99.90;;;;;;5072312;28;20193;-89
2023/06/29 00:11:49;;;;;;;19.27;14.37;;;15.00;99.90;;;;;;5054322;28;20214;-88
2023/06/29 00:14:16;;;;;;;21.57;15.00;;;15.00;99.90;;;;;;5071011;28;20198;-89
2023/06/29 00:16:43;;;;;;;22.03;15.20;;;15.00;99.90;;;;;;5054162;28;20708;-88
2023/06/29 00:19:14;;;;;;;21.67;14.80;;;14.90;99.90;;;;;;5054300;28;20218;-89
2023/06/29 00:21:42;;;;;;;20.20;14.23;;;14.80;99.90;;;;;;5072500;28;20293;-87
2023/06/29 00:24:11;;;;;;;20.07;14.77;;;14.80;99.90;;;;;;5072201;28;20196;-89
2023/06/29 00:26:38;;;;;;;20.20;14.00;;;14.80;99.90;;;;;;5058469;28;20225;-88
2023/06/29 00:29:05;;;;;;;20.80;13.90;;;14.90;99.90;;;;;;5076289;28;20194;-87
2023/06/29 00:31:32;;;;;;;19.67;14.47;;;14.80;99.90;;;;;;5076019;28;20293;-87
2023/06/29 00:34:00;;;;;;;17.90;13.37;;;14.80;99.90;;;;;;5076352;28;20186;-88
2023/06/29 00:36:26;;;;;;;19.13;12.80;;;14.80;99.90;;;;;;5058148;28;20214;-86
2023/06/29 00:38:53;;;;;;;18.80;13.37;;;14.80;99.90;;;;;;5058139;28;20661;-87
2023/06/29 00:41:20;;;;;;;18.27;13.20;;;14.90;99.90;;;;;;5058032;28;20232;-86
2023/06/29 00:43:48;;;;;;;17.00;12.43;;;14.90;99.90;;;;;;5074677;28;20192;-88
2023/06/29 00:46:18;;;;;;;16.53;12.23;;;14.80;99.90;;;;;;5074625;28;20217;-87
2023/06/29 00:48:47;;;;;;;19.20;12.07;;;14.80;99.90;;;;;;5078399;28;20174;-88
2023/06/29 00:51:15;;;;;;;20.53;12.57;;;14.80;99.90;;;;;;5078172;28;20257;-88
2023/06/29 00:53:43;;;;;;;19.70;12.27;;;14.70;99.90;;;;;;5077767;28;20220;-88
2023/06/29 00:56:10;;;;;;;15.87;12.60;;;14.80;99.90;;;;;;5061026;28;20308;-88
2023/06/29 00:58:37;;;;;;;17.20;12.03;;;14.80;99.90;;;;;;5060978;28;20213;-88
2023/06/29 01:01:04;;;;;;;14.17;11.23;;;14.80;99.90;;;;;;5061053;28;20319;-88
2023/06/29 01:03:31;;;;;;;14.37;10.60;;;14.80;99.90;;;;;;5077610;28;20772;-87
2023/06/29 01:06:04;;;;;;;15.80;11.07;;;14.80;99.90;;;;;;5077608;28;20221;-88
2023/06/29 01:08:37;;;;;;;18.77;11.37;;;14.80;99.90;;;;;;5060844;28;20213;-88
2023/06/29 01:11:05;;;;;;;18.50;11.30;;;14.90;99.90;;;;;;5077935;28;20685;-88
2023/06/29 01:13:32;;;;;;;15.03;10.80;;;14.70;99.90;;;;;;5077724;28;20202;-89
2023/06/29 01:16:00;;;;;;;18.73;11.80;;;14.70;99.90;;;;;;5060640;28;20531;-89
2023/06/29 01:18:30;;;;;;;15.57;11.23;;;14.70;99.90;;;;;;5060724;28;20218;-88
2023/06/29 01:20:59;;;;;;;15.70;11.63;;;14.60;99.90;;;;;;5060585;28;20229;-88
2023/06/29 01:23:29;;;;;;;18.00;11.60;;;14.70;99.90;;;;;;5095616;28;20490;-89
2023/06/29 01:25:57;;;;;;;16.33;11.60;;;14.60;99.90;;;;;;5060731;28;20214;-88
2023/06/29 01:28:24;;;;;;;16.77;11.77;;;14.60;99.90;;;;;;5060583;28;20201;-90
2023/06/29 01:30:51;;;;;;;16.23;12.13;;;14.60;99.90;;;;;;5060669;28;20217;-90
2023/06/29 01:33:21;;;;;;;17.60;12.00;;;14.50;99.90;;;;;;5077371;28;20193;-89
2023/06/29 01:35:53;;;;;;;17.00;12.37;;;14.40;99.90;;;;;;5075563;28;20363;-89
2023/06/29 01:38:26;;;;;;;17.83;11.87;;;14.50;99.90;;;;;;5077122;28;20208;-90
2023/06/29 01:40:56;;;;;;;17.67;11.63;;;14.40;99.90;;;;;;5060751;28;20278;-90
2023/06/29 01:43:24;;;;;;;16.27;11.07;;;14.50;99.90;;;;;;5095143;28;20274;-88
2023/06/29 01:45:52;;;;;;;15.00;11.43;;;14.50;99.90;;;;;;5077118;28;20271;-88
2023/06/29 01:48:19;;;;;;;15.77;11.97;;;14.50;99.90;;;;;;5095813;28;20332;-88
2023/06/29 01:50:48;;;;;;;17.77;12.57;;;14.50;99.90;;;;;;5076529;28;20213;-83
2023/06/29 01:53:15;;;;;;;17.53;12.80;;;14.40;99.90;;;;;;5076926;28;20286;-83
2023/06/29 01:55:42;;;;;;;17.23;12.57;;;14.30;99.90;;;;;;5076395;28;20213;-84
2023/06/29 01:58:10;;;;;;;18.23;13.03;;;14.30;99.90;;;;;;5094844;28;20680;-84
2023/06/29 02:00:37;;;;;;;19.40;13.50;;;14.30;99.90;;;;;;5094514;28;20637;-84
2023/06/29 02:03:04;;;;;;;21.33;13.90;;;14.20;99.90;;;;;;5076648;28;20291;-84
2023/06/29 02:05:31;;;;;;;20.40;13.77;;;14.30;99.90;;;;;;5094848;28;20212;-84
2023/06/29 02:07:58;;;;;;;18.87;13.00;;;14.20;99.90;;;;;;5059756;28;20205;-84
2023/06/29 02:10:25;;;;;;;19.07;13.07;;;14.20;99.90;;;;;;5076049;28;20764;-83
2023/06/29 02:12:52;;;;;;;18.37;13.57;;;14.10;99.90;;;;;;5076296;28;20247;-84
2023/06/29 02:15:19;;;;;;;18.87;13.90;;;14.00;99.90;;;;;;5100147;28;20234;-85
2023/06/29 02:17:46;;;;;;;20.43;13.50;;;14.00;99.90;;;;;;5099891;28;20188;-82
2023/06/29 02:20:13;;;;;;;20.17;13.30;;;14.00;99.90;;;;;;5064648;28;20241;-82
2023/06/29 02:22:40;;;;;;;17.43;12.40;;;14.00;99.90;;;;;;5064610;28;20213;-83
2023/06/29 02:25:10;;;;;;;17.73;13.13;;;14.00;99.90;;;;;;5080258;28;20222;-82
2023/06/29 02:27:37;;;;;;;19.83;13.47;;;14.00;99.90;;;;;;5081213;28;20207;-83
2023/06/29 02:30:05;;;;;;;19.10;14.10;;;13.90;99.90;;;;;;5098751;28;20207;-82
2023/06/29 02:32:32;;;;;;;19.30;13.03;;;13.90;99.90;;;;;;5075703;28;20785;-83
2023/06/29 02:34:59;;;;;;;22.00;14.20;;;13.90;99.90;;;;;;5075628;28;20236;-83
2023/06/29 02:37:26;;;;;;;21.27;14.63;;;13.80;99.90;;;;;;5075827;28;20205;-84
2023/06/29 02:39:53;;;;;;;21.57;13.87;;;13.80;99.90;;;;;;5058890;28;20769;-84
2023/06/29 02:42:22;;;;;;;18.80;13.80;;;13.90;99.90;;;;;;5094324;28;20219;-84
2023/06/29 02:44:48;;;;;;;17.90;12.67;;;13.90;99.90;;;;;;5058755;28;20219;-83
2023/06/29 02:47:15;;;;;;;19.80;13.17;;;14.00;99.90;;;;;;5092892;28;20217;-83
2023/06/29 02:49:42;;;;;;;19.30;13.73;;;14.00;99.90;;;;;;5075284;28;20289;-83
2023/06/29 02:52:09;;;;;;;17.87;12.90;;;13.90;99.90;;;;;;5093558;28;20196;-82
2023/06/29 02:54:36;;;;;;;16.70;12.53;;;14.00;99.90;;;;;;5058678;28;20649;-82
2023/06/29 02:57:03;;;;;;;17.30;12.47;;;14.00;99.90;;;;;;5093325;28;20731;-82
2023/06/29 02:59:30;;;;;;;18.53;13.63;;;14.10;99.90;;;;;;5093319;28;20189;-83
2023/06/29 03:01:57;;;;;;;18.20;12.33;;;14.10;99.90;;;;;;5058485;28;20273;-83
2023/06/29 03:04:24;;;;;;;20.40;12.90;;;14.20;99.90;;;;;;5093665;28;20284;-84
2023/06/29 03:06:51;;;;;;;17.73;12.33;;;14.20;99.90;;;;;;5093418;28;20209;-84
2023/06/29 03:09:19;;;;;;;18.30;12.10;;;14.20;99.90;;;;;;5074863;28;20675;-84
2023/06/29 03:11:46;;;;;;;20.80;12.07;;;14.20;99.90;;;;;;5093726;28;20201;-84
2023/06/29 03:14:13;;;;;;;17.63;11.57;;;14.30;99.90;;;;;;5074958;28;20243;-84
2023/06/29 03:16:39;;;;;;;16.83;11.27;;;14.30;99.90;;;;;;5075065;28;20217;-84
2023/06/29 03:19:06;;;;;;;18.60;11.93;;;14.30;99.90;;;;;;5058550;28;20192;-83
2023/06/29 03:21:33;;;;;;;16.80;10.80;;;14.30;99.90;;;;;;5074511;28;20327;-83
2023/06/29 03:24:00;;;;;;;15.93;10.93;;;14.40;99.90;;;;;;5075059;28;20706;-83
2023/06/29 03:26:27;;;;;;;12.00;9.70;;;14.50;99.90;;;;;;5058151;28;20213;-83
2023/06/29 03:28:54;;;;;;;13.77;9.93;;;14.60;99.90;;;;;;5058464;28;20264;-83
2023/06/29 03:31:21;;;;;;;14.97;9.83;;;14.70;99.90;;;;;;5057982;28;20221;-83
2023/06/29 03:33:48;;;;;;;14.53;9.87;;;14.80;99.90;;;;;;5074797;28;20641;-83
2023/06/29 03:36:15;;;;;;;16.23;10.53;;;14.80;99.90;;;;;;5074514;28;20216;-83
2023/06/29 03:38:42;;;;;;;12.60;9.40;;;14.80;99.90;;;;;;5074852;28;20193;-83
2023/06/29 03:41:09;;;;;;;13.43;9.00;;;14.70;99.90;;;;;;5057732;28;20225;-84
2023/06/29 03:43:36;;;;;;;13.60;8.77;;;14.70;99.90;;;;;;5092624;28;20239;-84
2023/06/29 03:46:02;;;;;;;12.73;9.53;;;14.70;99.90;;;;;;5074687;28;20220;-83
2023/06/29 03:48:29;;;;;;;11.83;8.90;;;14.70;99.90;;;;;;5057672;28;20637;-84
2023/06/29 03:50:57;;;;;;;14.73;9.97;;;14.80;99.90;;;;;;5074562;28;20255;-83
2023/06/29 03:53:24;;;;;;;13.47;9.63;;;14.70;99.90;;;;;;5057666;28;20233;-84
2023/06/29 03:55:51;;;;;;;14.50;9.57;;;14.60;99.90;;;;;;5057723;28;20316;-83
2023/06/29 03:58:18;;;;;;;14.63;9.53;;;14.80;99.90;;;;;;5073953;28;20649;-84
2023/06/29 04:00:45;;;;;;;16.63;10.30;;;14.80;99.90;;;;;;5057347;28;20653;-84
2023/06/29 04:03:12;;;;;;;14.07;9.80;;;14.80;99.90;;;;;;5074239;28;20576;-84
2023/06/29 04:05:39;;;;;;;15.43;10.70;;;14.70;99.90;;;;;;5074369;28;20221;-83
2023/06/29 04:08:06;;;;;;;13.43;9.07;;;14.80;99.90;;;;;;5074140;28;20188;-83
2023/06/29 04:10:34;;;;;;;15.33;9.27;;;14.70;99.90;;;;;;5074203;28;20217;-84
2023/06/29 04:13:01;;;;;;;14.67;9.97;;;14.80;99.90;;;;;;5092268;28;20185;-84
2023/06/29 04:15:28;;;;;;;12.73;9.33;;;14.80;99.90;;;;;;5057410;28;20207;-83
2023/06/29 04:17:55;;;;;;;15.10;9.30;;;14.90;99.90;;;;;;5057379;28;20250;-83
2023/06/29 04:20:22;;;;;;;11.07;8.60;;;14.90;99.90;;;;;;5074294;28;20229;-84
2023/06/29 04:22:49;;;;;;;12.77;9.10;;;15.10;99.90;;;;;;5074581;28;20225;-84
2023/06/29 04:25:16;;;;;;;12.67;8.30;;;15.20;99.90;;;;;;5092114;28;20202;-84
2023/06/29 04:27:43;;;;;;;11.97;7.97;;;15.20;99.90;;;;;;5074383;28;20193;-83
2023/06/29 04:30:11;;;;;;;10.47;7.73;;;15.30;99.90;;;;;;5092009;28;20247;-84
2023/06/29 04:32:38;;;;;;;10.40;7.47;;;15.40;99.90;;;;;;5057260;28;20201;-84
2023/06/29 04:35:09;;;;;;;11.00;7.47;;;15.60;99.90;;;;;;5057321;28;20216;-84
2023/06/29 04:37:40;;;;;;;9.47;7.43;;;15.50;99.90;;;;;;5092005;28;20193;-85
2023/06/29 04:40:14;;;;;;;12.73;7.77;;;15.50;99.90;;;;;;5057533;28;20316;-84
2023/06/29 04:42:45;;;;;;;12.73;8.40;;;15.50;99.90;;;;;;5073793;28;20208;-83
2023/06/29 04:45:17;;;;;;;14.13;8.40;;;15.50;99.90;;;;;;5073707;28;20221;-84
2023/06/29 04:47:46;;;;;;;12.53;7.43;;;15.60;99.90;;;;;;5057293;28;20237;-85
2023/06/29 04:50:13;;;;;;;12.20;7.33;;;15.70;99.90;;;;;;5073677;28;20221;-83
2023/06/29 04:52:40;;;;;;;16.00;7.83;;;15.60;99.90;;;;;;5092078;28;20672;-84
2023/06/29 04:55:09;;;;;;;10.80;7.63;;;15.70;99.90;;;;;;5073543;28;20218;-83
2023/06/29 04:57:36;;;;;;;11.70;8.37;;;15.80;99.90;;;;;;5074818;28;20204;-83
2023/06/29 05:00:11;;;;;;;12.23;9.20;;;15.80;99.90;;;;;;5073525;28;20556;-84
2023/06/29 05:02:38;;;;;;;15.60;9.23;;;15.50;99.90;;;;;;5073718;28;20672;-85
2023/06/29 05:05:06;;;;;;;15.53;8.33;;;15.60;99.90;;;;;;5073194;28;20271;-84
2023/06/29 05:07:34;;;;;;;10.73;7.90;;;15.60;99.90;;;;;;5074131;28;20209;-84
2023/06/29 05:10:01;;;;;;;12.20;8.60;;;15.80;99.90;;;;;;5074214;28;20238;-84
2023/06/29 05:12:28;;;;;;;11.43;8.40;;;16.00;99.90;;;;;;5061118;28;20273;-84
2023/06/29 05:14:55;;;;;;;13.37;8.23;;;16.20;99.90;;;;;;5061052;28;20233;-84
2023/06/29 05:17:22;;;;;;;13.80;8.10;;;16.20;99.90;;;;;;5077976;28;20221;-84
2023/06/29 05:19:49;;;;;;;11.47;8.63;;;16.40;99.90;;;;;;5078646;28;20641;-85
2023/06/29 05:22:16;;;;;;;11.87;7.93;;;16.50;99.90;;;;;;5095537;28;20679;-85
2023/06/29 05:24:43;;;;;;;17.50;8.60;;;16.50;99.90;;;;;;5095882;28;20451;-87
2023/06/29 05:27:10;;;;;;;11.63;8.10;;;16.50;99.90;;;;;;5095306;28;20288;-83
2023/06/29 05:29:38;;;;;;;12.23;7.77;;;16.50;99.90;;;;;;5077423;28;20680;-83
2023/06/29 05:32:05;;;;;;;9.70;8.17;;;16.60;99.90;;;;;;5059980;28;20271;-84
2023/06/29 05:34:32;;;;;;;11.83;7.93;;;16.60;99.90;;;;;;5076906;28;20193;-83
2023/06/29 05:36:59;;;;;;;11.20;7.50;;;16.70;99.90;;;;;;5060645;28;20241;-84
2023/06/29 05:39:28;;;;;;;10.93;8.10;;;16.80;99.90;;;;;;5077642;28;20202;-84
2023/06/29 05:41:55;;;;;;;9.27;7.60;;;17.00;99.90;;;;;;5060045;28;20304;-85
2023/06/29 05:44:22;;;;;;;12.60;7.93;;;17.20;99.90;;;;;;5076761;28;20610;-83
2023/06/29 05:46:49;;;;;;;11.03;7.73;;;17.30;99.90;;;;;;5059866;28;20737;-83
2023/06/29 05:49:16;;;;;;;13.40;8.47;;;17.30;99.90;;;;;;5076610;28;20642;-84
2023/06/29 05:51:43;;;;;;;13.27;8.07;;;17.00;99.90;;;;;;5076715;28;20217;-84
2023/06/29 05:54:10;;;;;;;12.37;7.70;;;17.00;99.90;;;;;;5060235;28;20710;-83
2023/06/29 05:56:37;;;;;;;12.13;7.83;;;17.20;99.90;;;;;;5076658;28;20209;-84
2023/06/29 05:59:04;;;;;;;19.57;9.20;;;17.30;99.90;;;;;;5094689;28;20601;-84
2023/06/29 06:01:31;;;;;;;17.37;8.17;;;17.50;99.90;;;;;;5076240;28;20233;-85
2023/06/29 06:03:58;;;;;;;12.87;7.77;;;17.50;99.90;;;;;;5060064;28;20205;-85
2023/06/29 06:06:25;;;;;;;12.53;8.60;;;17.70;99.90;;;;;;5094713;28;20198;-85
2023/06/29 06:08:52;;;;;;;13.57;8.70;;;17.60;99.90;;;;;;5060069;28;20225;-84
2023/06/29 06:11:19;;;;;;;13.53;8.63;;;17.40;99.90;;;;;;5076507;28;20217;-85
2023/06/29 06:13:46;;;;;;;38.10;12.37;;;17.50;99.90;;;;;;5076568;28;20197;-87
2023/06/29 06:16:13;;;;;;;16.17;8.77;;;17.50;99.90;;;;;;5059147;28;20715;-86
2023/06/29 06:18:40;;;;;;;15.50;9.60;;;17.30;99.90;;;;;;5059661;28;20217;-83
2023/06/29 06:21:08;;;;;;;13.37;9.40;;;17.20;99.90;;;;;;5075780;28;20267;-83
2023/06/29 06:23:34;;;;;;;15.23;9.90;;;17.00;99.90;;;;;;5075593;28;20185;-84
2023/06/29 06:26:02;;;;;;;17.53;10.20;;;17.20;99.90;;;;;;5075950;28;20213;-85
2023/06/29 06:28:29;;;;;;;15.67;9.70;;;17.00;99.90;;;;;;5059529;28;20202;-85
2023/06/29 06:30:56;;;;;;;15.07;9.87;;;17.00;99.90;;;;;;5076128;28;20262;-85
2023/06/29 06:33:23;;;;;;;13.80;9.80;;;17.10;99.90;;;;;;5075879;28;20211;-85
2023/06/29 06:35:50;;;;;;;16.83;10.03;;;17.40;99.90;;;;;;5076059;28;20209;-84
2023/06/29 06:38:17;;;;;;;13.60;9.10;;;17.70;99.90;;;;;;5059228;28;20198;-84
2023/06/29 06:40:44;;;;;;;14.33;9.60;;;17.80;99.90;;;;;;5075604;28;20248;-85
2023/06/29 06:43:11;;;;;;;12.17;8.87;;;17.80;99.90;;;;;;5059168;28;20194;-86
2023/06/29 06:45:38;;;;;;;11.57;8.10;;;17.90;99.90;;;;;;5075674;28;20217;-85
2023/06/29 06:48:05;;;;;;;14.07;8.90;;;18.00;99.90;;;;;;5094017;28;20298;-89
2023/06/29 06:50:33;;;;;;;13.97;8.63;;;18.00;99.90;;;;;;5093689;28;20262;-90
2023/06/29 06:53:00;;;;;;;12.87;8.43;;;17.90;99.90;;;;;;5059042;28;20229;-89
2023/06/29 06:55:27;;;;;;;12.17;8.47;;;18.10;99.90;;;;;;5075488;28;20247;-88
2023/06/29 06:57:54;;;;;;;12.90;7.60;;;17.90;99.90;;;;;;5075714;28;20251;-88
2023/06/29 07:00:22;;;;;;;12.80;7.70;;;18.10;99.90;;;;;;5075186;28;20621;-88
2023/06/29 07:02:49;;;;;;;13.93;8.70;;;18.40;99.90;;;;;;5093510;28;20190;-90
2023/06/29 07:05:16;;;;;;;13.00;7.83;;;18.30;99.90;;;;;;5075626;28;20201;-87
2023/06/29 07:07:45;;;;;;;13.00;8.40;;;18.10;99.90;;;;;;5075155;28;20259;-88
2023/06/29 07:10:13;;;;;;;13.50;8.50;;;18.00;99.90;;;;;;5058755;28;20223;-88
2023/06/29 07:12:40;;;;;;;10.53;7.40;;;17.90;99.90;;;;;;5058485;28;20221;-88
2023/06/29 07:15:07;;;;;;;13.67;9.10;;;18.00;99.90;;;;;;5058853;28;20283;-89
2023/06/29 07:17:34;;;;;;;15.67;8.47;;;18.10;99.90;;;;;;5075331;28;20198;-88
2023/06/29 07:20:03;;;;;;;14.27;8.37;;;18.20;99.90;;;;;;5074842;28;20194;-89
2023/06/29 07:22:33;;;;;;;13.17;7.70;;;18.30;99.90;;;;;;5058720;28;20221;-89
2023/06/29 07:25:04;;;;;;;179.67;22.70;;;18.40;99.90;;;;;;5074913;28;20307;-85
2023/06/29 07:27:31;;;;;;;11.80;8.00;;;18.50;99.90;;;;;;5058275;28;20688;-89
2023/06/29 07:29:59;;;;;;;12.37;7.20;;;18.70;99.90;;;;;;5074736;28;20641;-85
2023/06/29 07:32:26;;;;;;;764.13;74.87;;;18.80;99.90;;;;;;5074977;28;20216;-86
2023/06/29 07:34:53;;;;;;;18.10;8.03;;;18.90;99.90;;;;;;5074882;28;20629;-85
2023/06/29 07:37:21;;;;;;;11.67;6.87;;;19.10;99.90;;;;;;5074793;28;20220;-84
2023/06/29 07:39:48;;;;;;;10.67;6.73;;;19.20;99.90;;;;;;5074644;28;20193;-86
2023/06/29 07:42:15;;;;;;;10.50;7.27;;;19.50;99.90;;;;;;5074810;28;20216;-83
2023/06/29 07:45:00;;;;;;;12.00;7.00;;;19.50;99.90;;;;;;5060610;28;20177;-86
2023/06/29 07:47:27;;;;;;;9.43;6.20;;;19.60;99.90;;;;;;5074693;28;20229;-87
2023/06/29 07:49:53;;;;;;;11.00;6.60;;;19.70;99.90;;;;;;5074734;28;20244;-87
2023/06/29 07:52:22;;;;;;;11.23;6.17;;;19.80;99.90;;;;;;5074881;28;20193;-87
2023/06/29 07:54:49;;;;;;;8.93;6.20;;;20.10;99.90;;;;;;5057515;28;20194;-82
2023/06/29 07:57:16;;;;;;;10.77;6.33;;;20.10;99.90;;;;;;5092693;28;20186;-90
2023/06/29 07:59:47;;;;;;;10.93;7.03;;;20.30;99.90;;;;;;5092461;28;20195;-79
2023/06/29 08:02:14;;;;;;;9.67;6.13;;;20.40;99.90;;;;;;5074083;28;20628;-80
2023/06/29 08:04:41;;;;;;;8.43;5.97;;;20.40;99.90;;;;;;5074257;28;20638;-80
2023/06/29 08:07:12;;;;;;;8.40;5.70;;;20.50;99.90;;;;;;5073981;28;20653;-81
2023/06/29 08:09:39;;;;;;;8.30;5.70;;;20.60;99.90;;;;;;5074058;28;20288;-82
2023/06/29 08:12:07;;;;;;;9.47;5.73;;;20.50;99.90;;;;;;5057418;28;20210;-82
2023/06/29 08:14:35;;;;;;;8.63;5.60;;;20.70;99.90;;;;;;5074686;28;20311;-80
2023/06/29 08:17:03;;;;;;;7.40;5.60;;;20.90;99.90;;;;;;5074573;28;20217;-77
2023/06/29 08:19:30;;;;;;;13.87;6.33;;;21.00;99.90;;;;;;5075161;28;20220;-85
2023/06/29 08:21:57;;;;;;;9.93;5.90;;;21.10;99.90;;;;;;5074358;28;20222;-85
2023/06/29 08:24:24;;;;;;;7.40;5.43;;;21.10;99.90;;;;;;5092960;28;20200;-88
2023/06/29 08:26:50;;;;;;;8.97;5.03;;;21.30;99.90;;;;;;5073960;28;20252;-82
2023/06/29 08:29:19;;;;;;;6.87;4.80;;;21.90;99.90;;;;;;5057286;28;20231;-83
2023/06/29 08:31:46;;;;;;;9.43;5.03;;;22.70;99.90;;;;;;5092413;28;20202;-84
2023/06/29 08:34:13;;;;;;;6.75;4.82;;;23.20;99.90;;;;;;5057304;28;20194;-82
2023/06/29 08:36:40;;;;;;;7.40;5.05;;;24.00;99.90;;;;;;5092288;28;20211;-84
2023/06/29 08:39:08;;;;;;;7.55;5.05;;;24.60;99.90;;;;;;5074654;28;20247;-83
2023/06/29 08:41:35;;;;;;;12.05;5.43;;;25.30;99.90;;;;;;5091989;28;20225;-82
2023/06/29 08:44:04;;;;;;;7.38;5.05;;;25.60;99.90;;;;;;5057562;28;20554;-85
2023/06/29 08:46:32;;;;;;;10.75;5.53;;;25.60;99.90;;;;;;5076849;28;20308;-82
2023/06/29 08:49:01;;;;;;;5.97;4.65;;;25.50;99.90;;;;;;5096053;28;20583;-84
2023/06/29 08:51:29;;;;;;;8.32;4.93;;;25.90;99.90;;;;;;5077841;28;20797;-80
2023/06/29 08:53:56;;;;;;;5.57;4.85;;;25.90;99.90;;;;;;5077750;28;20197;-82
2023/06/29 08:56:24;;;;;;;5.60;4.50;;;25.70;99.90;;;;;;5061280;28;20217;-80
2023/06/29 08:58:52;;;;;;;8.05;4.82;;;25.90;99.90;;;;;;5061035;28;20239;-82
2023/06/29 09:01:19;;;;;;;6.53;4.68;;;25.90;99.90;;;;;;5096005;28;20436;-83
2023/06/29 09:03:49;;;;;;;6.13;4.55;;;26.20;99.90;;;;;;5078048;28;20189;-83
2023/06/29 09:06:16;;;;;;;6.07;4.43;;;26.50;99.90;;;;;;5096068;28;20205;-83
2023/06/29 09:08:43;;;;;;;5.65;4.45;;;27.20;99.90;;;;;;5077811;28;20292;-86
2023/06/29 09:11:10;;;;;;;6.63;4.68;;;27.40;99.90;;;;;;5077622;28;20224;-87
2023/06/29 09:13:37;;;;;;;6.57;4.68;;;27.40;99.90;;;;;;5061036;28;20284;-87
2023/06/29 09:16:05;;;;;;;5.68;4.80;;;27.30;99.90;;;;;;5077792;28;20236;-86
2023/06/29 09:18:32;;;;;;;5.65;4.30;;;27.00;99.90;;;;;;5077522;28;20217;-83
2023/06/29 09:21:00;;;;;;;7.22;4.57;;;27.20;99.90;;;;;;5095304;28;20233;-83
2023/06/29 09:23:28;;;;;;;6.85;4.80;;;27.00;99.90;;;;;;5095372;28;20200;-85
2023/06/29 09:25:57;;;;;;;6.88;4.85;;;26.10;99.90;;;;;;5095231;28;20626;-81
2023/06/29 09:28:26;;;;;;;7.20;5.10;;;26.00;99.90;;;;;;5077039;28;20660;-81
2023/06/29 09:30:53;;;;;;;6.13;5.03;;;26.10;99.90;;;;;;5077050;28;20216;-82
2023/06/29 09:33:24;;;;;;;6.63;5.00;;;26.20;99.90;;;;;;5077560;28;20553;-83
2023/06/29 09:35:51;;;;;;;7.25;4.93;;;26.50;99.90;;;;;;5060543;28;20312;-83
2023/06/29 09:38:20;;;;;;;6.45;4.72;;;26.70;99.90;;;;;;5060132;28;20609;-81
2023/06/29 09:40:52;;;;;;;6.47;4.68;;;27.00;99.90;;;;;;5094664;28;20255;-82
2023/06/29 09:43:27;;;;;;;8.40;5.00;;;27.50;99.90;;;;;;5076564;28;20291;-83
2023/06/29 09:46:08;;;;;;;6.63;4.93;;;27.40;99.90;;;;;;5095113;28;20212;-81
2023/06/29 09:48:46;;;;;;;5.88;4.80;;;26.80;99.90;;;;;;5077108;28;20275;-84
2023/06/29 09:51:20;;;;;;;5.50;4.30;;;26.80;99.90;;;;;;5060487;28;20243;-83
2023/06/29 09:53:48;;;;;;;5.10;3.80;;;27.40;99.90;;;;;;5095272;28;20200;-84
2023/06/29 09:56:16;;;;;;;7.35;4.30;;;26.90;99.90;;;;;;5094284;28;20317;-85
2023/06/29 09:58:44;;;;;;;5.93;4.07;;;27.30;99.90;;;;;;5059602;28;20210;-81
2023/06/29 10:01:11;;;;;;;6.10;4.07;;;27.70;99.90;;;;;;5076791;28;20252;-78
2023/06/29 10:03:38;;;;;;;8.63;4.00;;;28.20;99.90;;;;;;5076756;28;20193;-82
2023/06/29 10:06:12;;;;;;;5.90;3.95;;;28.70;99.90;;;;;;5076419;28;20603;-79
2023/06/29 10:08:42;;;;;;;5.30;3.65;;;28.90;99.90;;;;;;5076522;28;20661;-82
2023/06/29 10:11:10;;;;;;;7.03;3.97;;;29.20;99.90;;;;;;5076570;28;20213;-82
2023/06/29 10:13:45;;;;;;;4.63;3.85;;;29.40;99.90;;;;;;5076247;28;20236;-82
2023/06/29 10:16:14;;;;;;;5.97;4.30;;;29.40;99.90;;;;;;5076110;28;20256;-82
2023/06/29 10:18:46;;;;;;;5.32;3.60;;;29.10;99.90;;;;;;5076499;28;20185;-82
2023/06/29 10:21:14;;;;;;;4.38;3.60;;;28.90;99.90;;;;;;5076175;28;20278;-83
2023/06/29 10:23:44;;;;;;;40.47;7.35;;;28.60;98.70;;;;;;5076310;28;20208;-82
2023/06/29 10:26:12;;;;;;;9.90;3.53;;;28.50;97.70;;;;;;5076151;28;20209;-84
2023/06/29 10:28:39;;;;;;;7.10;3.50;;;28.90;97.90;;;;;;5094242;28;20279;-82
2023/06/29 10:31:06;;;;;;;9.27;3.58;;;29.70;96.60;;;;;;5094082;28;20217;-82
2023/06/29 10:33:48;;;;;;;5.45;3.55;;;29.90;95.30;;;;;;5075975;28;20190;-83
2023/06/29 10:36:16;;;;;;;4.30;3.15;;;29.80;94.20;;;;;;5094113;28;20259;-85
2023/06/29 10:38:44;;;;;;;5.32;3.75;;;29.70;94.00;;;;;;5076024;28;20198;-83
2023/06/29 10:41:26;;;;;;;5.97;3.90;;;29.10;92.90;;;;;;5076116;28;20307;-83
2023/06/29 10:44:00;;;;;;;7.55;3.50;;;28.90;94.20;;;;;;5075846;28;20194;-85
2023/06/29 10:46:46;;;;;;;4.20;3.58;;;29.20;94.30;;;;;;5093651;28;20707;-83
2023/06/29 10:49:25;;;;;;;6.35;3.90;;;29.80;92.50;;;;;;5075686;28;20698;-82
2023/06/29 10:51:54;;;;;;;6.80;4.30;;;30.10;91.40;;;;;;5075452;28;20308;-82
2023/06/29 10:54:22;;;;;;;98.55;12.98;;;29.40;92.10;;;;;;5075442;28;20201;-81
2023/06/29 10:57:28;;;;;;;5.63;3.60;;;29.90;93.50;;;;;;5059122;28;20227;-80
2023/06/29 10:59:55;;;;;;;7.18;3.88;;;29.50;90.70;;;;;;5075371;28;20287;-80
2023/06/29 11:02:23;;;;;;;4.53;3.67;;;29.90;91.00;;;;;;5075993;28;20240;-82
2023/06/29 11:04:50;;;;;;;5.03;3.85;;;30.40;88.70;;;;;;5093787;28;20273;-82
2023/06/29 11:07:17;;;;;;;4.53;3.72;;;30.80;89.40;;;;;;5075868;28;20649;-82
2023/06/29 11:09:44;;;;;;;6.40;4.30;;;30.90;88.10;;;;;;5075140;28;20193;-80
2023/06/29 11:12:11;;;;;;;8.45;4.05;;;31.30;86.00;;;;;;5076520;28;20241;-83
2023/06/29 11:14:42;;;;;;;5.05;3.80;;;30.10;85.40;;;;;;5094805;28;20235;-82
2023/06/29 11:17:09;;;;;;;10.00;4.13;;;29.40;87.10;;;;;;5059264;28;20268;-86
2023/06/29 11:19:42;;;;;;;6.53;4.32;;;29.80;88.10;;;;;;5076818;28;20220;-88
2023/06/29 11:22:09;;;;;;;8.73;4.35;;;30.20;87.40;;;;;;5076123;28;20217;-88
2023/06/29 11:24:36;;;;;;;17.65;4.88;;;30.30;86.10;;;;;;5060081;28;20197;-90
2023/06/29 11:27:04;;;;;;;158.45;20.35;;;30.10;87.70;;;;;;5059724;28;20209;-89
2023/06/29 11:29:31;;;;;;;13.63;5.03;;;30.20;86.90;;;;;;5060106;28;20190;-87
2023/06/29 11:32:01;;;;;;;5.50;3.97;;;30.20;86.70;;;;;;5094377;28;20236;-88
2023/06/29 11:34:28;;;;;;;6.68;4.30;;;30.50;86.60;;;;;;5075240;28;20243;-84
2023/06/29 11:36:55;;;;;;;13.05;4.38;;;30.70;86.10;;;;;;5075901;28;20792;-89
2023/06/29 11:39:48;;;;;;;6.32;3.95;;;30.80;85.50;;;;;;5075243;28;20198;-85
2023/06/29 11:42:18;;;;;;;7.75;3.80;;;31.20;87.00;;;;;;5075738;28;20213;-87
2023/06/29 11:44:46;;;;;;;7.20;4.13;;;31.40;83.60;;;;;;5075220;28;20284;-89
2023/06/29 11:47:14;;;;;;;5.00;4.10;;;31.40;80.20;;;;;;5075208;28;20320;-89
2023/06/29 11:50:00;;;;;;;5.78;3.83;;;30.30;81.90;;;;;;5093602;28;20524;-89
2023/06/29 11:52:32;;;;;;;5.97;3.70;;;30.50;83.30;;;;;;5075593;28;20224;-87
2023/06/29 11:55:05;;;;;;;3.88;3.47;;;30.80;83.40;;;;;;5075149;28;20207;-85
2023/06/29 11:57:39;;;;;;;4.82;4.10;;;31.70;79.80;;;;;;5058918;28;20221;-88
2023/06/29 12:00:16;;;;;;;4.45;3.60;;;31.80;77.90;;;;;;5058728;28;20621;-90
2023/06/29 12:02:45;;;;;;;6.00;3.90;;;31.80;78.70;;;;;;5075289;28;20316;-90
2023/06/29 12:05:12;;;;;;;6.60;3.67;;;32.30;76.80;;;;;;5059435;28;20233;-91
2023/06/29 12:07:44;;;;;;;4.05;3.53;;;32.50;77.10;;;;;;5075212;28;20208;-91
2023/06/29 12:10:13;;;;;;;5.50;3.75;;;32.30;76.50;;;;;;5075786;28;20217;-88
2023/06/29 12:12:49;;;;;;;7.85;3.97;;;32.30;75.90;;;;;;5075340;28;20276;-92
2023/06/29 12:15:18;;;;;;;5.72;3.47;;;31.70;75.30;;;;;;5093633;28;20201;-90
2023/06/29 12:17:47;;;;;;;5.93;3.70;;;31.50;73.70;;;;;;5093937;28;20217;-86
2023/06/29 12:20:22;;;;;;;7.47;3.90;;;30.80;75.40;;;;;;5074415;28;20715;-92
2023/06/29 12:22:53;;;;;;;5.57;3.60;;;30.60;77.40;;;;;;5076333;28;20212;-92
2023/06/29 12:25:21;;;;;;;4.53;3.78;;;30.50;77.40;;;;;;5075581;28;20218;-91
2023/06/29 12:27:50;;;;;;;6.43;3.83;;;30.50;77.20;;;;;;5095715;28;20203;-86
2023/06/29 12:30:20;;;;;;;7.00;3.60;;;31.10;78.90;;;;;;5078230;28;20221;-86
2023/06/29 12:32:49;;;;;;;5.28;3.75;;;31.20;76.80;;;;;;5096711;28;20195;-89
2023/06/29 12:35:18;;;;;;;5.28;3.88;;;31.90;76.50;;;;;;5080132;28;20466;-88
2023/06/29 12:37:45;;;;;;;4.03;3.20;;;32.30;77.70;;;;;;5097938;28;20249;-87
2023/06/29 12:40:14;;;;;;;4.55;3.33;;;33.00;72.00;;;;;;5079364;28;20260;-83
2023/06/29 12:42:41;;;;;;;3.72;3.30;;;33.30;72.50;;;;;;5075280;28;20232;-84
2023/06/29 12:45:09;;;;;;;4.68;3.80;;;32.80;71.40;;;;;;5074494;28;20224;-83